createdAt,value
2022-10-05T07:31:49.543Z,16.30
2022-10-05T07:34:26.800Z,16.30
2022-10-05T07:37:18.608Z,16.30
2022-10-05T07:40:00.672Z,16.40
2022-10-05T07:42:50.626Z,16.40
2022-10-05T07:45:28.445Z,16.40
2022-10-05T07:48:00.599Z,16.40
2022-10-05T07:50:35.722Z,16.40
2022-10-05T07:53:12.032Z,16.40
2022-10-05T07:55:46.423Z,16.40
2022-10-05T07:58:22.403Z,16.50
2022-10-05T08:01:03.755Z,16.50
2022-10-05T08:03:49.753Z,16.50
2022-10-05T08:06:50.716Z,16.50
2022-10-05T08:09:31.499Z,16.50
2022-10-05T08:12:13.223Z,16.50
2022-10-05T08:14:49.928Z,16.50
2022-10-05T08:17:26.400Z,16.50
2022-10-05T08:20:06.347Z,16.50
2022-10-05T08:22:43.291Z,16.50
2022-10-05T08:25:21.407Z,16.60
2022-10-05T08:27:53.654Z,16.60
2022-10-05T08:30:22.320Z,16.60
2022-10-05T08:32:57.107Z,16.60
2022-10-05T08:35:34.357Z,16.60
2022-10-05T08:38:05.089Z,16.70
2022-10-05T08:41:06.414Z,16.60
2022-10-05T08:44:11.939Z,16.70
2022-10-05T08:47:12.497Z,16.70
2022-10-05T08:50:11.653Z,16.80
2022-10-05T08:53:12.664Z,16.80
2022-10-05T08:55:53.681Z,16.80
2022-10-05T08:58:55.050Z,16.90
2022-10-05T09:01:31.267Z,16.80
2022-10-05T09:04:32.175Z,16.90
2022-10-05T09:07:38.888Z,16.90
2022-10-05T09:10:49.802Z,16.90
2022-10-05T09:13:45.474Z,17.00
2022-10-05T09:16:44.564Z,17.00
2022-10-05T09:19:41.590Z,17.00
2022-10-05T09:22:16.377Z,16.90
2022-10-05T09:24:56.573Z,16.90
2022-10-05T09:27:38.727Z,16.90
2022-10-05T09:30:28.014Z,17.00
2022-10-05T09:33:26.092Z,16.90
2022-10-05T09:36:18.762Z,17.00
2022-10-05T09:39:14.370Z,17.00
2022-10-05T09:42:12.926Z,17.00
2022-10-05T09:45:21.734Z,17.10
2022-10-05T09:48:25.941Z,17.10
2022-10-05T09:51:37.911Z,17.00
2022-10-05T09:54:43.644Z,17.10
2022-10-05T09:57:39.302Z,17.20
2022-10-05T10:00:27.916Z,17.20
2022-10-05T10:03:25.655Z,17.30
2022-10-05T10:06:16.309Z,17.30
2022-10-05T10:08:53.989Z,17.50
2022-10-05T10:12:02.472Z,17.60
2022-10-05T10:15:09.495Z,17.70
2022-10-05T10:18:15.618Z,17.80
2022-10-05T10:20:59.879Z,17.90
2022-10-05T10:23:48.839Z,18.00
2022-10-05T10:26:49.654Z,18.10
2022-10-05T10:30:06.921Z,18.20
2022-10-05T10:32:53.015Z,18.10
2022-10-05T10:35:33.135Z,18.00
2022-10-05T10:38:34.513Z,17.90
2022-10-05T10:41:46.366Z,18.00
2022-10-05T10:44:52.927Z,18.00
2022-10-05T10:47:55.495Z,18.00
2022-10-05T10:50:50.359Z,18.00
2022-10-05T10:53:44.084Z,18.00
2022-10-05T10:56:47.497Z,18.00
2022-10-05T11:00:03.728Z,18.00
2022-10-05T11:02:51.086Z,17.90
2022-10-05T11:05:39.426Z,17.90
2022-10-05T11:08:41.000Z,17.90
2022-10-05T11:11:36.305Z,17.90
2022-10-05T11:14:46.076Z,18.00
2022-10-05T11:17:43.742Z,18.00
2022-10-05T11:20:43.662Z,18.00
2022-10-05T11:23:38.781Z,17.90
2022-10-05T11:26:32.669Z,18.00
2022-10-05T11:29:35.305Z,18.00
2022-10-05T11:32:54.088Z,18.00
2022-10-05T11:35:37.403Z,18.00
2022-10-05T11:38:17.081Z,18.00
2022-10-05T11:41:16.077Z,18.00
2022-10-05T11:44:09.029Z,18.00
2022-10-05T11:46:46.227Z,18.00
2022-10-05T11:49:28.459Z,18.00
2022-10-05T11:52:03.861Z,18.00
2022-10-05T11:55:13.680Z,18.00
2022-10-05T11:57:49.313Z,18.00
2022-10-05T12:00:21.111Z,18.00
2022-10-05T12:03:29.111Z,18.00
2022-10-05T12:06:17.368Z,18.10
2022-10-05T12:08:57.356Z,18.10
2022-10-05T12:11:57.647Z,18.10
2022-10-05T12:14:37.995Z,18.10
2022-10-05T12:17:12.551Z,18.00
2022-10-05T12:19:46.180Z,18.10
2022-10-05T12:22:20.169Z,18.00
2022-10-05T12:25:03.898Z,18.00
2022-10-05T12:27:38.782Z,17.90
2022-10-05T12:30:15.743Z,18.00
2022-10-05T12:33:00.939Z,17.90
2022-10-05T12:35:47.985Z,17.90
2022-10-05T12:38:27.354Z,18.00
2022-10-05T12:41:04.538Z,18.00
2022-10-05T12:43:41.790Z,18.10
2022-10-05T12:46:20.988Z,18.20
2022-10-05T12:49:40.380Z,18.30
2022-10-05T12:52:18.134Z,18.40
2022-10-05T12:54:55.392Z,18.60
2022-10-05T12:57:30.635Z,18.70
2022-10-05T13:00:04.816Z,18.80
2022-10-05T13:02:42.490Z,19.00
2022-10-05T13:05:24.777Z,19.00
2022-10-05T13:08:07.814Z,18.90
2022-10-05T13:10:40.507Z,19.00
2022-10-05T13:13:27.977Z,19.00
2022-10-05T13:16:04.564Z,19.10
2022-10-05T13:18:45.594Z,19.20
2022-10-05T13:21:17.997Z,19.30
2022-10-05T13:23:57.836Z,19.30
2022-10-05T13:26:31.048Z,19.20
2022-10-05T13:29:05.925Z,19.20
2022-10-05T13:31:39.839Z,19.80
2022-10-05T13:34:19.128Z,20.10
2022-10-05T13:37:01.020Z,20.00
2022-10-05T13:39:51.597Z,19.90
2022-10-05T13:42:27.184Z,19.70
2022-10-05T13:45:00.510Z,19.60
2022-10-05T13:47:34.061Z,19.40
2022-10-05T13:50:08.389Z,19.20
2022-10-05T13:52:45.874Z,19.20
2022-10-05T13:55:23.765Z,19.30
2022-10-05T13:57:58.016Z,19.50
2022-10-05T14:00:28.290Z,19.50
2022-10-05T14:02:58.612Z,19.40
2022-10-05T14:05:28.761Z,19.40
2022-10-05T14:07:59.019Z,19.20
2022-10-05T14:10:35.471Z,19.10
2022-10-05T14:13:19.788Z,19.10
2022-10-05T14:16:09.367Z,19.10
2022-10-05T14:18:40.065Z,19.00
2022-10-05T14:21:19.734Z,19.00
2022-10-05T14:23:47.970Z,19.00
2022-10-05T14:26:32.761Z,19.00
2022-10-05T14:29:03.100Z,19.00
2022-10-05T14:31:35.514Z,19.00
2022-10-05T14:34:31.932Z,19.00
2022-10-05T14:37:04.947Z,19.00
2022-10-05T14:39:36.201Z,19.00
2022-10-05T14:42:15.938Z,19.00
2022-10-05T14:44:44.350Z,19.00
2022-10-05T14:47:23.519Z,19.00
2022-10-05T14:50:10.951Z,19.00
2022-10-05T14:52:41.347Z,19.00
2022-10-05T14:55:35.078Z,19.00
2022-10-05T14:58:43.017Z,19.00
2022-10-05T15:01:18.579Z,18.90
2022-10-05T15:03:52.383Z,19.00
2022-10-05T15:06:30.203Z,18.90
2022-10-05T15:09:17.365Z,19.00
2022-10-05T15:11:51.788Z,19.00
2022-10-05T15:14:26.685Z,19.00
2022-10-05T15:17:01.829Z,19.00
2022-10-05T15:19:45.052Z,19.00
2022-10-05T15:22:32.424Z,19.00
2022-10-05T15:25:14.037Z,19.00
2022-10-05T15:28:02.210Z,19.00
2022-10-05T15:30:33.986Z,19.00
2022-10-05T15:33:13.203Z,19.00
2022-10-05T15:35:55.741Z,19.00
2022-10-05T15:38:26.572Z,19.00
2022-10-05T15:41:05.364Z,18.90
2022-10-05T15:43:51.617Z,19.00
2022-10-05T15:46:34.551Z,18.90
2022-10-05T15:49:16.382Z,19.00
2022-10-05T15:51:55.330Z,19.00
2022-10-05T15:54:43.524Z,19.00
